Latest  Newer  Older  Last 2 hours animation  Current image  Latest image 
Rain/snow radar  Infrared sat images 
Real-time lightning map

All time is UTC (add 2 hours to UTC in wintertime, 3 hours to UTC in DST for Latvia local time)

2018/11/15 07:20 EVRA 150720Z 00000KT 0400 0250 R36/1700U FG FEW002 SCT037 03/03 Q1031 R36/290195 BECMG 1500 BR
2018/11/15 07:20 EVLA 150720Z AUTO 00000KT 8000 FEW003/// OVC033/// 07/07 Q1031
2018/11/15 07:20 EVVA 150720Z AUTO 19003KT 9999 OVC028 07/06 Q1030
2018/11/15 07:20 EYKA 150720Z 35003KT 310V020 5000 BR OVC004 07/07 Q1031 R08/190095
2018/11/15 07:20 EYPA 150720Z 17003KT 9999 OVC038 07/07 Q1032 R19/1///95
2018/11/15 07:20 EYSA 150720Z 34006KT 0900 0550NW R32R/0900V1400D FG OVC002 06/06 Q1032 R14L/29//95 AMB TEMPO BKN001 0500FG RED
2018/11/15 07:20 EYVI 150720Z 04008KT 9999 OVC004 05/04 Q1030 R01/2///95 NOSIG
2018/11/15 06:50 EEKA 150650Z 17004KT 9999 OVC023 07/06 Q1029
2018/11/15 06:50 EEKE 150650Z 21005KT 180V240 9999 OVC024 08/05 Q1030
2018/11/15 06:50 EEPU 150650Z VRB02KT 8000 OVC025 06/06 Q1030
2018/11/15 07:20 EETN 150720Z 22006KT 9999 OVC021 06/05 Q1029 R08/290195 NOSIG
2018/11/15 06:50 EETU 150650Z 27003KT 9999 OVC026 05/05 Q1030
   RIGA AIRPORT     EVRA               56 55N  023 58E   10   X     T          6 LV
   LIEPAJA INTL     EVLA        26406  56 31N  021 06E    4   X                8 LV
   VENTPILS         EVVA               57 21N  021 33E    6   X                8 LV
   KAUNAS           EYKA               54 54N  023 55E   77   X     T          6 LT
   PALANGA INTL     EYPA               55 55N  021 03E   10   X                6 LT
   SIAULIAI INTL    EYSA               55 54N  023 24E  135   X     T          6 LT
   VILNIUS INTL     EYVI        26730  54 38N  025 17E  197   X     T          6 LT
   KARDLA           EEKA        26116  58 59N  022 50E    4   X                8 EE
   KURESSAARE       EEKE               58 14N  022 31E    4   X                8 EE
   PARNU            EEPU               58 25N  024 28E   14   X                8 EE
   TALLINN          EETN        26038  59 24N  024 49E   40   X     T          8 EE
   TARTU            EETU               58 19N  026 41E   67   X                8 EE

cloud coverage image from sat24.com and METAR data from weather.noaa.gov